Main page
METAR-TAF:

METAR-TAF

Airports :

Storm Lake Municipal Airport

Storm Lake, Iowa, United States

latitude: 42-36N, longitude: 095-14W, elevation: 1489 ft

Current weather observation

The report was made 23 minutes ago, at 20:55 UTC
Wind 26 mph from the Southwest with gusts up to 39 mph
Temperature 73°F
Humidity 33%
Pressure 29.67 in. Hg
Visibility: 9 miles
Clear sky

METAR: KSLB 222055Z AUTO 23023G34KT 9SM CLR 23/06 A2967 RMK AO2

Time: 16:18 (21:18 UTC)


TAF: missing

Weather observations and forecasts of more than 4000 airports (METAR and TAF reports).

The available stations are represented by yellow and red dots on the map.

Hover mouse over dot to see the name of the station.

Then click to see weather observations and forecasts.

To change the map : click on the green buttons with a black cross to zoom in, on the green button with a dash to zoom out, or on the green arrows for adjacent maps.


METAR-TAF: